Time;durP1;ratioP1;P1;durP2;ratioP2;P2;SDS_P1;SDS_P2;PMS_P1;PMS_P2;Temp;Humidity;BMP_temperature;BMP_pressure;BME280_temperature;BME280_humidity;BME280_pressure;Samples;Min_cycle;Max_cycle;Signal;HPM_P1;HPM_P2
2022/09/02 00:00:54;;;;;;;1.50;0.80;;;14.30;99.90;;;;;;5067028;28;20038;-55
2022/09/02 00:03:20;;;;;;;1.05;0.77;;;14.30;99.90;;;;;;5067461;28;20049;-55
2022/09/02 00:05:46;;;;;;;1.40;0.90;;;14.30;99.90;;;;;;5049088;28;20070;-56
2022/09/02 00:08:12;;;;;;;2.65;1.02;;;14.30;99.90;;;;;;5067134;28;20059;-55
2022/09/02 00:10:41;;;;;;;0.70;0.60;;;14.20;99.90;;;;;;5066994;28;20498;-55
2022/09/02 00:13:09;;;;;;;1.15;0.90;;;14.20;99.90;;;;;;5067199;28;20387;-56
2022/09/02 00:15:35;;;;;;;2.33;0.82;;;14.10;99.90;;;;;;5067218;28;20226;-56
2022/09/02 00:18:02;;;;;;;0.63;0.47;;;14.10;99.90;;;;;;5058663;28;20161;-55
2022/09/02 00:20:29;;;;;;;0.90;0.80;;;14.10;99.90;;;;;;5046928;28;20502;-55
2022/09/02 00:22:55;;;;;;;1.83;0.70;;;14.00;99.90;;;;;;5047121;28;20499;-55
2022/09/02 00:25:21;;;;;;;1.10;0.95;;;14.00;99.90;;;;;;5049282;28;20068;-55
2022/09/02 00:27:47;;;;;;;1.38;0.65;;;14.00;99.90;;;;;;5054142;28;20128;-55
2022/09/02 00:30:13;;;;;;;1.95;0.93;;;13.90;99.90;;;;;;5070340;28;20128;-60
2022/09/02 00:32:39;;;;;;;1.80;0.45;;;13.90;99.90;;;;;;5070860;28;20055;-60
2022/09/02 00:35:06;;;;;;;0.80;0.80;;;13.90;99.90;;;;;;5070499;28;20036;-58
2022/09/02 00:37:31;;;;;;;0.98;0.55;;;13.90;99.90;;;;;;5056442;28;20048;-55
2022/09/02 00:39:57;;;;;;;2.13;0.75;;;13.80;99.90;;;;;;5051975;28;20410;-57
2022/09/02 00:42:24;;;;;;;0.75;0.60;;;13.80;99.90;;;;;;5070792;28;20052;-59
2022/09/02 00:44:50;;;;;;;1.52;0.50;;;13.80;99.90;;;;;;5070253;28;20134;-56
2022/09/02 00:47:17;;;;;;;3.47;0.80;;;13.70;99.90;;;;;;5070286;28;20052;-58
2022/09/02 00:49:47;;;;;;;0.82;0.50;;;13.70;99.90;;;;;;5070118;28;20041;-57
2022/09/02 00:52:14;;;;;;;0.93;0.70;;;13.70;99.90;;;;;;5070679;28;20048;-55
2022/09/02 00:54:49;;;;;;;2.85;0.80;;;13.60;99.90;;;;;;5070201;28;20055;-55
2022/09/02 00:57:18;;;;;;;0.98;0.88;;;13.70;99.90;;;;;;5070439;28;20433;-56
2022/09/02 01:00:15;;;;;;;1.23;0.88;;;13.60;99.90;;;;;;5066097;28;20443;-56
2022/09/02 01:02:41;;;;;;;0.55;0.55;;;13.60;99.90;;;;;;5070643;28;20048;-55
2022/09/02 01:05:12;;;;;;;1.20;0.60;;;13.60;99.90;;;;;;5051933;28;20048;-57
2022/09/02 01:07:38;;;;;;;2.45;0.70;;;13.50;99.90;;;;;;5069757;28;20498;-55
2022/09/02 01:10:10;;;;;;;1.25;0.90;;;13.50;99.90;;;;;;5070282;28;20094;-55
2022/09/02 01:12:36;;;;;;;0.68;0.60;;;13.50;99.90;;;;;;5070317;28;20452;-56
2022/09/02 01:15:04;;;;;;;0.80;0.70;;;13.50;99.90;;;;;;5069709;28;20037;-59
2022/09/02 01:17:33;;;;;;;1.30;0.80;;;13.50;99.90;;;;;;5070115;28;20123;-59
2022/09/02 01:20:05;;;;;;;0.80;0.70;;;13.40;99.90;;;;;;5069095;28;20055;-56
2022/09/02 01:22:32;;;;;;;1.65;0.68;;;13.50;99.90;;;;;;5051939;28;20041;-59
2022/09/02 01:25:04;;;;;;;1.08;0.82;;;13.50;99.90;;;;;;5069350;28;20068;-59
2022/09/02 01:27:29;;;;;;;1.95;0.90;;;13.50;99.90;;;;;;5069936;28;20049;-59
2022/09/02 01:29:58;;;;;;;0.70;0.70;;;13.40;99.90;;;;;;5050675;28;20829;-58
2022/09/02 01:32:26;;;;;;;1.05;0.95;;;13.40;99.90;;;;;;5049898;28;20040;-55
2022/09/02 01:34:51;;;;;;;1.50;0.60;;;13.40;99.90;;;;;;5069852;28;20083;-55
2022/09/02 01:37:17;;;;;;;0.93;0.77;;;13.40;99.90;;;;;;5037810;28;20084;-55
2022/09/02 01:39:44;;;;;;;1.30;0.90;;;13.40;99.90;;;;;;5068191;28;20536;-56
2022/09/02 01:42:10;;;;;;;0.88;0.80;;;13.40;99.90;;;;;;5069551;28;20044;-56
2022/09/02 01:44:42;;;;;;;1.50;0.90;;;13.40;99.90;;;;;;5069426;28;20498;-55
2022/09/02 01:47:16;;;;;;;3.35;0.73;;;13.50;99.90;;;;;;5069121;28;20052;-59
2022/09/02 01:49:42;;;;;;;0.60;0.50;;;13.40;99.90;;;;;;5049659;28;20402;-59
2022/09/02 01:52:08;;;;;;;2.60;0.93;;;13.50;99.90;;;;;;5049481;28;20525;-56
2022/09/02 01:54:34;;;;;;;1.55;1.08;;;13.40;99.90;;;;;;5049382;28;20045;-60
2022/09/02 01:57:00;;;;;;;1.65;0.75;;;13.50;99.90;;;;;;5049302;28;20041;-59
2022/09/02 01:59:26;;;;;;;0.75;0.60;;;13.40;99.90;;;;;;5049504;28;20049;-59
2022/09/02 02:01:51;;;;;;;1.52;1.10;;;13.40;99.90;;;;;;5048955;28;20097;-55
2022/09/02 02:04:17;;;;;;;0.70;0.52;;;13.40;99.90;;;;;;5068923;28;20052;-58
2022/09/02 02:06:44;;;;;;;1.20;1.10;;;13.30;99.90;;;;;;5068665;28;20056;-55
2022/09/02 02:09:11;;;;;;;1.73;0.80;;;13.30;99.90;;;;;;5068346;28;20052;-55
2022/09/02 02:11:37;;;;;;;2.83;0.68;;;13.30;99.90;;;;;;5069140;28;20044;-59
2022/09/02 02:14:03;;;;;;;1.55;0.90;;;13.30;99.90;;;;;;5068663;28;20479;-56
2022/09/02 02:16:29;;;;;;;1.90;0.60;;;13.30;99.90;;;;;;5068857;28;20044;-58
2022/09/02 02:18:55;;;;;;;0.80;0.80;;;13.20;99.90;;;;;;5052322;28;20052;-57
2022/09/02 02:21:21;;;;;;;0.80;0.70;;;13.20;99.90;;;;;;5048718;28;20562;-57
2022/09/02 02:23:47;;;;;;;1.05;0.55;;;13.20;99.90;;;;;;5048494;28;20479;-59
2022/09/02 02:26:13;;;;;;;1.15;0.80;;;13.20;99.90;;;;;;5048919;28;20453;-56
2022/09/02 02:28:38;;;;;;;1.67;0.82;;;13.10;99.90;;;;;;5048580;28;20056;-59
2022/09/02 02:31:05;;;;;;;1.10;0.60;;;13.10;99.90;;;;;;5066394;28;20091;-56
2022/09/02 02:33:31;;;;;;;0.50;0.50;;;13.10;99.90;;;;;;5068800;28;20040;-55
2022/09/02 02:35:57;;;;;;;1.10;1.00;;;13.10;99.90;;;;;;5066818;28;20067;-59
2022/09/02 02:38:23;;;;;;;0.77;0.77;;;13.00;99.90;;;;;;5048798;28;20106;-59
2022/09/02 02:40:54;;;;;;;1.00;0.70;;;13.00;99.90;;;;;;5055750;28;20037;-59
2022/09/02 02:43:19;;;;;;;0.80;0.70;;;13.00;99.90;;;;;;5068162;28;20055;-57
2022/09/02 02:45:45;;;;;;;1.50;0.77;;;13.00;99.90;;;;;;5067765;28;20036;-56
2022/09/02 02:48:12;;;;;;;0.88;0.80;;;13.00;99.90;;;;;;5067975;28;20502;-59
2022/09/02 02:50:38;;;;;;;0.93;0.70;;;12.90;99.90;;;;;;5068226;28;20090;-57
2022/09/02 02:53:04;;;;;;;0.70;0.70;;;12.90;99.90;;;;;;5068081;28;20558;-58
2022/09/02 02:55:30;;;;;;;1.38;0.95;;;12.80;99.90;;;;;;5067991;28;20051;-55
2022/09/02 02:57:55;;;;;;;0.82;0.73;;;12.80;99.90;;;;;;5067924;28;20093;-56
2022/09/02 03:00:27;;;;;;;0.95;0.60;;;12.80;99.90;;;;;;5067536;28;20096;-58
2022/09/02 03:03:03;;;;;;;1.55;1.27;;;12.70;99.90;;;;;;5067970;28;20600;-59
2022/09/02 03:05:29;;;;;;;1.23;1.13;;;12.70;99.90;;;;;;5049783;28;20055;-59
2022/09/02 03:07:55;;;;;;;1.67;0.60;;;12.70;99.90;;;;;;5068097;28;20178;-57
2022/09/02 03:10:22;;;;;;;2.72;0.80;;;12.60;99.90;;;;;;5068007;28;20076;-57
2022/09/02 03:12:48;;;;;;;0.70;0.60;;;12.60;99.90;;;;;;5068229;28;20414;-59
2022/09/02 03:15:16;;;;;;;0.88;0.88;;;12.60;99.90;;;;;;5045505;28;20084;-59
2022/09/02 03:17:46;;;;;;;1.08;0.80;;;12.60;99.90;;;;;;5054012;28;20098;-55
2022/09/02 03:20:14;;;;;;;1.95;0.90;;;12.60;99.90;;;;;;5067802;28;20525;-55
2022/09/02 03:22:44;;;;;;;1.52;0.90;;;12.50;99.90;;;;;;5068287;28;20052;-55
2022/09/02 03:25:11;;;;;;;1.95;0.75;;;12.50;99.90;;;;;;5067506;28;20060;-56
2022/09/02 03:27:39;;;;;;;1.77;1.00;;;12.50;99.90;;;;;;5067307;28;20135;-57
2022/09/02 03:30:07;;;;;;;2.88;0.82;;;12.50;99.90;;;;;;5067054;28;20055;-56
2022/09/02 03:32:33;;;;;;;1.38;1.15;;;12.40;99.90;;;;;;5065525;28;20508;-55
2022/09/02 03:35:01;;;;;;;1.40;1.10;;;12.40;99.90;;;;;;5067363;28;20048;-59
2022/09/02 03:37:26;;;;;;;1.63;1.20;;;12.40;99.90;;;;;;5053975;28;20079;-59
2022/09/02 03:39:52;;;;;;;0.95;0.82;;;12.30;99.90;;;;;;5047524;28;20052;-59
2022/09/02 03:42:18;;;;;;;0.63;0.63;;;12.30;99.90;;;;;;5048171;28;20390;-60
2022/09/02 03:44:44;;;;;;;1.95;0.77;;;12.30;99.90;;;;;;5047672;28;20585;-57
2022/09/02 03:47:09;;;;;;;1.67;1.10;;;12.30;99.90;;;;;;5047476;28;20048;-56
2022/09/02 03:49:35;;;;;;;1.80;0.80;;;12.20;99.90;;;;;;5067899;28;20091;-55
2022/09/02 03:52:01;;;;;;;0.98;0.90;;;12.10;99.90;;;;;;5067358;28;20060;-59
2022/09/02 03:54:27;;;;;;;3.58;1.10;;;12.20;99.90;;;;;;5067985;28;20041;-57
2022/09/02 03:56:52;;;;;;;1.33;1.10;;;12.20;99.90;;;;;;5067593;28;20579;-57
2022/09/02 03:59:18;;;;;;;1.60;1.10;;;12.30;99.90;;;;;;5067854;28;20049;-56
2022/09/02 04:01:44;;;;;;;2.95;1.40;;;12.10;99.90;;;;;;5071361;28;20052;-56
2022/09/02 04:04:10;;;;;;;3.67;1.10;;;12.10;99.90;;;;;;5051240;28;20467;-59
2022/09/02 04:06:36;;;;;;;2.47;0.95;;;12.10;99.90;;;;;;5051319;28;20051;-56
2022/09/02 04:09:02;;;;;;;4.45;1.35;;;12.00;99.90;;;;;;5044934;28;20438;-55
2022/09/02 04:11:28;;;;;;;2.78;0.90;;;12.00;99.90;;;;;;5054034;28;20422;-56
2022/09/02 04:13:54;;;;;;;1.23;1.05;;;12.10;99.90;;;;;;5051335;28;20160;-57
2022/09/02 04:16:27;;;;;;;0.95;0.90;;;12.10;99.90;;;;;;5050917;28;20534;-55
2022/09/02 04:18:55;;;;;;;2.95;0.93;;;12.00;99.90;;;;;;5046773;28;20048;-55
2022/09/02 04:21:22;;;;;;;2.70;1.08;;;12.00;99.90;;;;;;5058624;28;20047;-54
2022/09/02 04:23:48;;;;;;;2.25;1.00;;;11.90;99.90;;;;;;5061384;28;20484;-57
2022/09/02 04:26:16;;;;;;;1.48;1.10;;;11.90;99.90;;;;;;5059438;28;20053;-56
2022/09/02 04:28:42;;;;;;;2.15;1.70;;;11.90;99.90;;;;;;5060273;28;20537;-56
2022/09/02 04:31:11;;;;;;;1.83;1.00;;;11.80;99.90;;;;;;5061645;28;20174;-59
2022/09/02 04:33:37;;;;;;;2.28;1.20;;;11.80;99.90;;;;;;5060510;28;20473;-59
2022/09/02 04:36:05;;;;;;;1.20;1.10;;;11.80;99.90;;;;;;5062954;28;20128;-57
2022/09/02 04:38:31;;;;;;;1.40;1.20;;;11.80;99.90;;;;;;5059853;28;20056;-55
2022/09/02 04:40:57;;;;;;;1.73;1.23;;;11.80;99.90;;;;;;5059970;28;20480;-54
2022/09/02 04:43:23;;;;;;;2.60;1.23;;;11.70;99.90;;;;;;5042989;28;20498;-55
2022/09/02 04:45:50;;;;;;;1.98;1.00;;;11.80;99.90;;;;;;5059166;28;20083;-55
2022/09/02 04:48:17;;;;;;;1.42;1.10;;;11.80;99.90;;;;;;5042823;28;20049;-55
2022/09/02 04:50:44;;;;;;;3.85;1.10;;;11.80;99.90;;;;;;5058525;28;20041;-55
2022/09/02 04:53:10;;;;;;;5.82;1.42;;;11.70;99.90;;;;;;5058780;28;20120;-55
2022/09/02 04:55:38;;;;;;;1.23;1.13;;;11.70;99.90;;;;;;5059701;28;20660;-57
2022/09/02 04:58:04;;;;;;;1.40;1.15;;;11.70;99.90;;;;;;5060663;28;20525;-56
2022/09/02 05:00:30;;;;;;;3.55;1.23;;;11.70;99.90;;;;;;5058970;28;20051;-55
2022/09/02 05:02:56;;;;;;;2.83;1.20;;;11.70;99.90;;;;;;5044318;28;20486;-55
2022/09/02 05:05:22;;;;;;;2.28;1.35;;;11.70;99.90;;;;;;5058960;28;20040;-55
2022/09/02 05:07:48;;;;;;;1.27;1.15;;;11.80;99.90;;;;;;5060798;28;20048;-54
2022/09/02 05:10:13;;;;;;;2.17;1.10;;;11.80;99.90;;;;;;5059272;28;20059;-55
2022/09/02 05:12:40;;;;;;;2.55;2.03;;;11.80;99.90;;;;;;5059206;28;20048;-56
2022/09/02 05:15:07;;;;;;;1.90;1.15;;;11.80;99.90;;;;;;5060567;28;20115;-57
2022/09/02 05:17:34;;;;;;;1.75;1.65;;;11.90;99.90;;;;;;5059437;28;20067;-57
2022/09/02 05:20:00;;;;;;;2.40;1.70;;;11.90;99.90;;;;;;5061030;28;20148;-56
2022/09/02 05:22:28;;;;;;;1.90;1.35;;;12.00;99.90;;;;;;5057994;28;20509;-57
2022/09/02 05:24:54;;;;;;;1.55;1.45;;;12.00;99.90;;;;;;5059609;28;20131;-59
2022/09/02 05:27:22;;;;;;;1.42;1.17;;;12.00;99.90;;;;;;5059858;28;20119;-56
2022/09/02 05:29:48;;;;;;;5.40;1.67;;;12.10;99.90;;;;;;5058255;28;20065;-59
2022/09/02 05:32:14;;;;;;;2.53;1.45;;;12.20;99.90;;;;;;5061153;28;20491;-55
2022/09/02 05:34:40;;;;;;;2.00;1.60;;;12.20;99.90;;;;;;5060304;28;20425;-55
2022/09/02 05:37:05;;;;;;;3.33;1.48;;;12.30;99.90;;;;;;5058035;28;20040;-55
2022/09/02 05:39:31;;;;;;;9.68;1.67;;;12.40;99.90;;;;;;5059512;28;20043;-55
2022/09/02 05:41:57;;;;;;;1.92;1.23;;;12.50;99.90;;;;;;5057987;28;20049;-56
2022/09/02 05:44:23;;;;;;;2.97;1.10;;;12.50;99.90;;;;;;5059775;28;20113;-55
2022/09/02 05:46:49;;;;;;;2.83;1.48;;;12.60;99.90;;;;;;5067355;28;20056;-56
2022/09/02 05:49:20;;;;;;;1.40;1.25;;;12.70;99.90;;;;;;5069492;28;20048;-57
2022/09/02 05:51:51;;;;;;;2.58;1.27;;;12.90;99.90;;;;;;5069103;28;20055;-55
2022/09/02 05:54:24;;;;;;;2.60;1.50;;;12.90;99.90;;;;;;5069265;28;20043;-55
2022/09/02 05:56:54;;;;;;;3.03;1.85;;;13.10;99.90;;;;;;5063935;28;20120;-55
2022/09/02 05:59:21;;;;;;;5.72;1.55;;;13.20;99.90;;;;;;5049075;28;20044;-54
2022/09/02 06:01:47;;;;;;;1.75;1.27;;;13.30;99.90;;;;;;5066457;28;20086;-55
2022/09/02 06:04:14;;;;;;;1.50;1.13;;;13.50;99.90;;;;;;5068989;28;20063;-56
2022/09/02 06:06:40;;;;;;;1.55;1.35;;;13.60;99.90;;;;;;5068980;28;20131;-55
2022/09/02 06:09:08;;;;;;;3.45;1.80;;;13.80;99.90;;;;;;5068843;28;20449;-56
2022/09/02 06:11:38;;;;;;;1.15;1.05;;;13.80;99.90;;;;;;5069273;28;20051;-55
2022/09/02 06:14:06;;;;;;;2.03;1.35;;;14.00;99.90;;;;;;5068994;28;20040;-56
2022/09/02 06:16:33;;;;;;;2.55;1.20;;;14.10;99.90;;;;;;5068220;28;20067;-56
2022/09/02 06:18:59;;;;;;;1.45;0.93;;;14.30;99.90;;;;;;5039703;28;20036;-55
2022/09/02 06:21:25;;;;;;;1.70;1.10;;;14.40;99.90;;;;;;5057987;28;20423;-56
2022/09/02 06:23:51;;;;;;;11.23;1.77;;;14.60;99.90;;;;;;5048990;28;20115;-56
2022/09/02 06:26:17;;;;;;;4.25;1.55;;;14.80;99.90;;;;;;5047413;28;20592;-55
2022/09/02 06:28:43;;;;;;;1.55;1.02;;;15.00;99.90;;;;;;5064815;28;20131;-55
2022/09/02 06:31:13;;;;;;;2.08;1.55;;;15.20;99.90;;;;;;5046267;28;20127;-56
2022/09/02 06:33:40;;;;;;;1.10;0.98;;;15.40;99.90;;;;;;5046736;28;20425;-56
2022/09/02 06:36:08;;;;;;;2.58;0.90;;;15.60;99.90;;;;;;5062994;28;20119;-55
2022/09/02 06:38:39;;;;;;;2.17;1.10;;;15.80;99.90;;;;;;5054646;28;20049;-56
2022/09/02 06:41:05;;;;;;;1.48;1.05;;;16.00;99.90;;;;;;5054315;28;20554;-56
2022/09/02 06:43:31;;;;;;;10.13;1.83;;;16.30;99.90;;;;;;5053541;28;20040;-56
2022/09/02 06:45:56;;;;;;;1.65;0.95;;;16.60;99.90;;;;;;5055124;28;20048;-57
2022/09/02 06:48:22;;;;;;;2.95;1.45;;;16.80;99.90;;;;;;5054202;28;20053;-56
2022/09/02 06:50:48;;;;;;;2.90;1.23;;;17.00;99.90;;;;;;5053845;28;20049;-57
2022/09/02 06:53:14;;;;;;;4.80;1.40;;;17.00;99.90;;;;;;5054574;28;20143;-56
2022/09/02 06:55:43;;;;;;;3.13;1.20;;;17.00;99.90;;;;;;5054124;28;20045;-56
2022/09/02 06:58:09;;;;;;;1.40;1.30;;;17.20;99.90;;;;;;5044976;28;20399;-56
2022/09/02 07:00:36;;;;;;;1.25;1.02;;;17.30;99.90;;;;;;5050080;28;20382;-55
2022/09/02 07:05:46;;;;;;;1.67;1.13;;;17.70;99.90;;;;;;5064288;28;20059;-58
2022/09/02 07:08:12;;;;;;;4.10;1.30;;;18.00;99.90;;;;;;5063307;28;20052;-58
2022/09/02 07:10:39;;;;;;;0.75;0.75;;;17.90;99.90;;;;;;5062715;28;20059;-58
2022/09/02 07:13:06;;;;;;;1.23;1.10;;;18.10;99.90;;;;;;5061904;28;20044;-59
2022/09/02 07:15:33;;;;;;;1.23;1.13;;;18.20;99.90;;;;;;5062737;28;20506;-56
2022/09/02 07:17:59;;;;;;;0.98;0.85;;;18.50;99.90;;;;;;5063927;28;20036;-56
2022/09/02 07:20:24;;;;;;;1.10;1.00;;;18.60;99.90;;;;;;5064460;28;20390;-56
2022/09/02 07:22:50;;;;;;;2.20;0.95;;;18.80;99.90;;;;;;5044539;28;20076;-55
2022/09/02 07:25:17;;;;;;;1.35;0.85;;;18.70;99.90;;;;;;5044104;28;20048;-58
2022/09/02 07:27:43;;;;;;;1.23;0.93;;;18.70;99.90;;;;;;5026639;28;20049;-58
2022/09/02 07:30:11;;;;;;;1.13;0.95;;;18.60;99.90;;;;;;5053388;28;20692;-56
2022/09/02 07:32:37;;;;;;;1.83;1.20;;;18.80;99.90;;;;;;5064257;28;20075;-58
2022/09/02 07:35:05;;;;;;;3.80;1.13;;;18.70;99.90;;;;;;5057396;28;20045;-58
2022/09/02 07:37:33;;;;;;;0.80;0.80;;;19.00;99.90;;;;;;5041145;28;20051;-57
2022/09/02 07:40:01;;;;;;;7.63;1.17;;;19.10;99.90;;;;;;5056790;28;20051;-57
2022/09/02 07:42:27;;;;;;;0.90;0.90;;;19.10;99.90;;;;;;5058350;28;20463;-58
2022/09/02 07:44:52;;;;;;;2.22;1.00;;;19.30;99.90;;;;;;5059063;28;20352;-57
2022/09/02 07:47:18;;;;;;;1.50;0.80;;;19.40;99.90;;;;;;5056446;28;20842;-56
2022/09/02 07:49:44;;;;;;;2.63;0.70;;;19.50;99.90;;;;;;5061059;28;20076;-57
2022/09/02 07:52:09;;;;;;;1.35;0.90;;;19.50;99.90;;;;;;5058688;28;20056;-56
2022/09/02 07:54:35;;;;;;;2.00;0.90;;;19.60;99.90;;;;;;5056398;28;20375;-56
2022/09/02 07:57:01;;;;;;;1.50;0.95;;;19.80;99.90;;;;;;5052014;28;20058;-55
2022/09/02 07:59:27;;;;;;;2.05;1.00;;;20.00;99.90;;;;;;5061093;28;20072;-56
2022/09/02 08:01:53;;;;;;;1.58;1.40;;;20.10;99.90;;;;;;5062358;28;20067;-56
2022/09/02 08:04:22;;;;;;;3.00;1.20;;;20.10;99.90;;;;;;5067530;28;20421;-58
2022/09/02 08:06:49;;;;;;;1.63;1.00;;;20.30;99.90;;;;;;5048450;28;20289;-56
2022/09/02 08:09:15;;;;;;;3.03;1.40;;;20.50;99.90;;;;;;5067567;28;20497;-56
2022/09/02 08:11:46;;;;;;;2.47;0.77;;;20.80;99.90;;;;;;5050014;28;20048;-58
2022/09/02 08:14:16;;;;;;;1.02;0.70;;;21.40;99.90;;;;;;5067916;28;20049;-56
2022/09/02 08:16:43;;;;;;;3.15;1.25;;;21.50;99.90;;;;;;5068297;28;20115;-56
2022/09/02 08:19:09;;;;;;;1.52;1.25;;;21.80;99.90;;;;;;5049541;28;20479;-58
2022/09/02 08:21:35;;;;;;;3.83;1.10;;;22.10;99.90;;;;;;5047498;28;20071;-57
2022/09/02 08:24:01;;;;;;;2.05;1.20;;;22.60;99.90;;;;;;5047742;28;20479;-57
2022/09/02 08:26:27;;;;;;;1.83;1.42;;;22.80;99.90;;;;;;5052806;28;20510;-57
2022/09/02 08:28:56;;;;;;;2.70;1.60;;;23.00;99.50;;;;;;5061925;28;20047;-56
2022/09/02 08:31:22;;;;;;;3.85;1.70;;;23.10;99.10;;;;;;5067398;28;20044;-56
2022/09/02 08:33:48;;;;;;;0.98;0.98;;;23.50;99.00;;;;;;5067448;28;20056;-56
2022/09/02 08:36:14;;;;;;;1.75;1.02;;;23.70;98.00;;;;;;5063003;28;20056;-56
2022/09/02 08:38:41;;;;;;;0.88;0.88;;;23.70;98.40;;;;;;5049766;28;20102;-58
2022/09/02 08:41:21;;;;;;;1.63;0.90;;;23.70;98.10;;;;;;5029478;28;20500;-56
2022/09/02 08:43:48;;;;;;;1.55;1.10;;;24.20;97.10;;;;;;5062377;28;20632;-57
2022/09/02 08:46:16;;;;;;;1.95;1.02;;;24.40;97.30;;;;;;5046331;28;20047;-56
2022/09/02 08:48:45;;;;;;;2.90;1.00;;;24.40;96.90;;;;;;5046374;28;20406;-57
2022/09/02 08:51:29;;;;;;;1.73;1.00;;;24.40;96.20;;;;;;5046527;28;20049;-57
2022/09/02 08:54:03;;;;;;;;;;;24.20;95.30;;;;;;5046725;28;20294;-56
2022/09/02 08:56:30;;;;;;;1.70;0.88;;;24.50;94.70;;;;;;5058532;28;20019;-56
2022/09/02 08:58:56;;;;;;;5.65;1.55;;;24.40;96.30;;;;;;5053929;28;20607;-56
2022/09/02 09:01:31;;;;;;;3.78;1.02;;;24.80;95.10;;;;;;5056798;28;20659;-56
2022/09/02 09:04:29;;;;;;;3.83;1.15;;;24.90;94.40;;;;;;5056423;28;20128;-56
2022/09/02 09:07:15;;;;;;;2.17;1.10;;;24.90;94.00;;;;;;5056627;28;20616;-56
2022/09/02 09:09:50;;;;;;;2.83;1.38;;;25.00;94.00;;;;;;5057852;28;20446;-55
2022/09/02 09:12:52;;;;;;;3.63;1.38;;;25.50;94.50;;;;;;5065787;28;20540;-57
2022/09/02 09:15:51;;;;;;;1.95;1.00;;;25.00;94.20;;;;;;5058849;28;20518;-55
2022/09/02 09:18:19;;;;;;;0.80;0.70;;;25.60;94.30;;;;;;5031595;28;20091;-56
2022/09/02 09:20:45;;;;;;;1.60;0.73;;;25.20;94.00;;;;;;5066517;28;20502;-56
2022/09/02 09:23:14;;;;;;;2.28;0.95;;;25.50;94.10;;;;;;5066205;28;20052;-55
2022/09/02 09:25:40;;;;;;;3.50;0.70;;;25.80;93.40;;;;;;5066082;28;20498;-56
2022/09/02 09:28:06;;;;;;;3.85;0.77;;;25.90;93.50;;;;;;5063560;28;20128;-57
2022/09/02 09:30:32;;;;;;;6.20;1.48;;;25.70;93.00;;;;;;5064300;28;20055;-56
2022/09/02 09:32:59;;;;;;;1.00;0.90;;;25.80;93.20;;;;;;5065305;28;20067;-56
2022/09/02 09:35:46;;;;;;;4.47;1.00;;;26.10;92.60;;;;;;5061307;28;20083;-57
2022/09/02 09:38:12;;;;;;;2.55;0.80;;;25.80;92.50;;;;;;5067199;28;20083;-56
2022/09/02 09:40:38;;;;;;;2.30;1.48;;;25.80;92.70;;;;;;5067547;28;20056;-56
2022/09/02 09:43:04;;;;;;;3.08;0.80;;;25.70;92.50;;;;;;5067118;28;20049;-57
2022/09/02 09:45:35;;;;;;;5.72;1.02;;;25.70;92.40;;;;;;5067138;28;20048;-56
2022/09/02 09:48:30;;;;;;;3.17;1.08;;;25.60;92.00;;;;;;5065698;28;20394;-57
2022/09/02 09:50:56;;;;;;;2.53;0.70;;;25.70;92.10;;;;;;5062521;28;20040;-56
2022/09/02 09:53:26;;;;;;;1.60;0.73;;;25.70;92.10;;;;;;5056443;28;20509;-56
2022/09/02 09:56:04;;;;;;;4.97;1.02;;;25.40;92.40;;;;;;5052039;28;20403;-56
2022/09/02 09:58:38;;;;;;;1.05;0.68;;;25.80;92.80;;;;;;5056308;28;20365;-56
2022/09/02 10:01:25;;;;;;;2.70;0.90;;;26.00;92.20;;;;;;5056000;28;20499;-56
2022/09/02 10:04:09;;;;;;;3.60;1.42;;;25.80;92.00;;;;;;5057413;28;20044;-56
2022/09/02 10:06:38;;;;;;;5.55;0.98;;;25.80;92.20;;;;;;5056711;28;20056;-56
2022/09/02 10:09:25;;;;;;;4.00;0.90;;;25.80;92.50;;;;;;5057052;28;20071;-57
2022/09/02 10:12:06;;;;;;;5.38;0.90;;;25.80;91.70;;;;;;5056817;28;20047;-56
2022/09/02 10:14:38;;;;;;;5.35;1.20;;;25.70;91.70;;;;;;5054525;28;20080;-58
2022/09/02 10:17:39;;;;;;;1.73;0.90;;;26.00;92.20;;;;;;5063711;28;20066;-57
2022/09/02 10:20:09;;;;;;;1.27;0.70;;;26.10;92.10;;;;;;5028898;28;20526;-56
2022/09/02 10:22:50;;;;;;;2.85;0.73;;;26.20;92.10;;;;;;5044519;28;20561;-57
2022/09/02 10:25:17;;;;;;;5.03;1.10;;;26.00;91.00;;;;;;5044191;28;20493;-57
2022/09/02 10:28:08;;;;;;;0.70;0.55;;;26.10;91.70;;;;;;5038816;28;20063;-56
2022/09/02 10:30:50;;;;;;;2.70;0.93;;;26.00;91.40;;;;;;5066001;28;20044;-57
2022/09/02 10:34:10;;;;;;;2.50;0.77;;;25.70;90.80;;;;;;5066118;28;20490;-56
2022/09/02 10:37:20;;;;;;;0.95;0.75;;;25.90;90.60;;;;;;4996427;28;20054;-57
2022/09/02 10:40:24;;;;;;;2.20;1.08;;;26.00;91.00;;;;;;5012823;28;20347;-56
2022/09/02 10:43:03;;;;;;;3.03;0.80;;;26.20;91.20;;;;;;5003014;28;20095;-56
2022/09/02 10:45:59;;;;;;;3.00;1.65;;;26.20;91.00;;;;;;5066622;28;20052;-57
2022/09/02 10:48:53;;;;;;;3.88;0.80;;;26.50;90.60;;;;;;5053983;28;20052;-56
2022/09/02 10:51:50;;;;;;;1.65;0.68;;;26.70;90.90;;;;;;5020105;28;20063;-58
2022/09/02 10:54:18;;;;;;;2.15;0.70;;;26.60;90.50;;;;;;5066108;28;20828;-57
2022/09/02 10:57:00;;;;;;;2.90;1.20;;;26.60;91.10;;;;;;5066189;28;20050;-58
2022/09/02 10:59:44;;;;;;;1.73;0.75;;;26.30;90.20;;;;;;5047149;28;20044;-59
2022/09/02 11:02:10;;;;;;;;;;;26.30;90.40;;;;;;5066795;28;20049;-59
2022/09/02 11:04:58;;;;;;;1.60;0.90;;;26.20;90.20;;;;;;5065970;28;20393;-56
2022/09/02 11:07:35;;;;;;;1.67;0.90;;;26.10;90.20;;;;;;5065700;28;20052;-56
2022/09/02 11:10:22;;;;;;;6.47;0.82;;;26.10;90.00;;;;;;5066032;28;20083;-57
2022/09/02 11:13:00;;;;;;;1.80;0.63;;;26.30;89.80;;;;;;5065772;28;20040;-58
2022/09/02 11:15:38;;;;;;;1.20;0.95;;;26.30;90.80;;;;;;5066126;28;20119;-59
2022/09/02 11:18:12;;;;;;;4.22;0.73;;;26.40;90.00;;;;;;5066026;28;20052;-58
2022/09/02 11:21:02;;;;;;;2.65;0.60;;;26.60;90.20;;;;;;5063549;28;20040;-57
2022/09/02 11:23:44;;;;;;;1.45;1.08;;;26.50;89.50;;;;;;5045460;28;20517;-59
2022/09/02 11:26:21;;;;;;;3.33;0.85;;;27.60;90.10;;;;;;5049186;28;20114;-59
2022/09/02 11:29:24;;;;;;;1.10;0.57;;;29.50;88.30;;;;;;5065415;28;20060;-58
2022/09/02 11:31:59;;;;;;;1.35;0.70;;;30.50;84.30;;;;;;5065524;28;20103;-57
2022/09/02 11:34:40;;;;;;;2.75;0.90;;;31.70;84.30;;;;;;5065636;28;20048;-59
2022/09/02 11:37:11;;;;;;;1.08;0.50;;;32.30;83.30;;;;;;5055844;28;20049;-58
2022/09/02 11:39:50;;;;;;;1.58;0.77;;;33.50;80.60;;;;;;5065117;28;20103;-59
2022/09/02 11:42:43;;;;;;;1.35;0.85;;;34.50;79.10;;;;;;5064611;28;20056;-57
2022/09/02 11:45:27;;;;;;;1.05;0.65;;;33.50;76.90;;;;;;5065128;28;20064;-59
2022/09/02 11:48:10;;;;;;;2.03;0.73;;;33.70;76.00;;;;;;5064189;28;20398;-59
2022/09/02 11:51:02;;;;;;;4.22;0.95;;;33.80;77.90;;;;;;5032628;28;20049;-59
2022/09/02 11:53:37;;;;;;;3.33;0.80;;;33.80;76.50;;;;;;5033573;28;20376;-57
2022/09/02 11:56:07;;;;;;;3.08;0.82;;;33.40;75.70;;;;;;5044226;28;20045;-57
2022/09/02 11:58:42;;;;;;;1.85;0.68;;;34.40;75.60;;;;;;5048580;28;20048;-56
2022/09/02 12:01:35;;;;;;;3.65;0.68;;;34.20;74.50;;;;;;5054541;28;20459;-57
2022/09/02 12:04:06;;;;;;;1.02;0.80;;;34.70;74.00;;;;;;5060680;28;20127;-57
2022/09/02 12:06:32;;;;;;;1.30;0.70;;;34.70;73.90;;;;;;5051500;28;20049;-59
2022/09/02 12:09:02;;;;;;;3.20;0.68;;;34.90;73.30;;;;;;5052797;28;20049;-60
2022/09/02 12:11:42;;;;;;;0.85;0.47;;;35.70;73.10;;;;;;5050900;28;20558;-59
2022/09/02 12:14:32;;;;;;;2.78;0.63;;;34.80;70.70;;;;;;5050045;28;20057;-59
2022/09/02 12:17:07;;;;;;;2.53;0.68;;;34.60;70.90;;;;;;5050733;28;20060;-59
2022/09/02 12:19:42;;;;;;;3.88;0.60;;;34.10;71.50;;;;;;5050386;28;20049;-58
2022/09/02 12:22:17;;;;;;;1.70;0.70;;;32.90;72.20;;;;;;5052605;28;20059;-57
2022/09/02 12:24:59;;;;;;;0.65;0.55;;;32.30;73.30;;;;;;5056182;28;20059;-57
2022/09/02 12:27:44;;;;;;;1.27;0.77;;;31.40;72.80;;;;;;5049605;28;20045;-57
2022/09/02 12:30:11;;;;;;;1.20;0.63;;;30.60;72.00;;;;;;5051610;28;20426;-57
2022/09/02 12:32:49;;;;;;;3.60;0.80;;;30.30;74.50;;;;;;5062812;28;20051;-56
2022/09/02 12:35:36;;;;;;;1.70;0.50;;;29.90;74.60;;;;;;5066337;28;20076;-56
2022/09/02 12:38:11;;;;;;;2.15;0.73;;;29.80;74.00;;;;;;5064738;28;20095;-56
2022/09/02 12:40:55;;;;;;;1.27;0.50;;;29.80;74.90;;;;;;5067472;28;20095;-56
2022/09/02 12:44:06;;;;;;;1.63;0.70;;;29.80;74.80;;;;;;5053277;28;20037;-56
2022/09/02 12:46:41;;;;;;;2.85;0.70;;;30.00;73.80;;;;;;5047097;28;20053;-57
2022/09/02 12:49:12;;;;;;;0.50;0.50;;;29.80;74.60;;;;;;5047627;28;20049;-56
2022/09/02 12:51:55;;;;;;;3.80;0.75;;;29.50;75.80;;;;;;5046190;28;20053;-56
2022/09/02 12:54:47;;;;;;;1.23;0.50;;;29.50;74.90;;;;;;5064425;28;20127;-56
2022/09/02 12:57:15;;;;;;;1.13;0.50;;;29.70;75.80;;;;;;5067392;28;20131;-56
2022/09/02 12:59:42;;;;;;;1.95;0.60;;;29.60;75.20;;;;;;5067867;28;20103;-61
2022/09/02 13:02:39;;;;;;;5.82;0.77;;;29.60;75.70;;;;;;5067217;28;20556;-56
2022/09/02 13:05:26;;;;;;;4.78;0.50;;;29.50;73.10;;;;;;5065740;28;20041;-62
2022/09/02 13:08:07;;;;;;;289.05;30.27;;;29.70;74.30;;;;;;5066415;28;20054;-57
2022/09/02 13:10:41;;;;;;;13.68;1.73;;;29.90;74.60;;;;;;5065434;28;20545;-57